Aviation Digital Data Service (ADDS)

Output produced by TAFs form (0923 UTC 19 August 2017)
found at http://aviationweather.gov/adds/tafs/
 
KDMN 190536Z 1906/2006 24008KT P6SM FEW060 SCT100 BKN250 
     FM191800 22010KT P6SM VCTS SCT060CB BKN100 BKN200 
     TEMPO 1922/2002 VRB25G35KT 5SM -TSRA BKN050CB BKN100 
     FM200300 28012G20KT 6SM -TSRA BKN040CB OVC100